createdAt,value
2022-11-20T00:00:40.996Z,960.28
2022-11-20T00:01:31.004Z,960.30
2022-11-20T00:02:21.040Z,960.26
2022-11-20T00:03:10.965Z,960.26
2022-11-20T00:04:00.961Z,960.33
2022-11-20T00:04:50.968Z,960.27
2022-11-20T00:05:41.168Z,960.25
2022-11-20T00:06:30.947Z,960.28
2022-11-20T00:07:20.986Z,960.29
2022-11-20T00:08:10.934Z,960.25
2022-11-20T00:09:00.946Z,960.23
2022-11-20T00:09:50.909Z,960.28
2022-11-20T00:10:40.906Z,960.28
2022-11-20T00:11:30.977Z,960.27
2022-11-20T00:12:20.870Z,960.30
2022-11-20T00:13:10.853Z,960.24
2022-11-20T00:14:00.853Z,960.30
2022-11-20T00:14:50.845Z,960.32
2022-11-20T00:15:40.827Z,960.34
2022-11-20T00:16:30.842Z,960.32
2022-11-20T00:17:20.824Z,960.31
2022-11-20T00:18:11.024Z,960.31
2022-11-20T00:19:00.788Z,960.32
2022-11-20T00:19:50.785Z,960.33
2022-11-20T00:20:40.769Z,960.34
2022-11-20T00:21:30.763Z,960.37
2022-11-20T00:22:20.769Z,960.36
2022-11-20T00:23:10.759Z,960.36
2022-11-20T00:24:00.793Z,960.35
2022-11-20T00:24:50.739Z,960.39
2022-11-20T00:25:40.711Z,960.41
2022-11-20T00:26:30.739Z,960.40
2022-11-20T00:27:20.695Z,960.41
2022-11-20T00:28:10.716Z,960.39
2022-11-20T00:29:00.691Z,960.37
2022-11-20T00:29:50.723Z,960.32
2022-11-20T00:30:40.680Z,960.36
2022-11-20T00:31:30.664Z,960.32
2022-11-20T00:32:20.652Z,960.35
2022-11-20T00:33:10.660Z,960.36
2022-11-20T00:34:00.620Z,960.34
2022-11-20T00:34:50.618Z,960.34
2022-11-20T00:35:40.641Z,960.37
2022-11-20T00:36:30.620Z,960.35
2022-11-20T00:37:20.602Z,960.40
2022-11-20T00:38:10.578Z,960.37
2022-11-20T00:39:00.577Z,960.40
2022-11-20T00:39:50.581Z,960.39
2022-11-20T00:40:40.569Z,960.41
2022-11-20T00:41:30.578Z,960.41
2022-11-20T00:42:20.530Z,960.40
2022-11-20T00:43:10.519Z,960.36
2022-11-20T00:44:00.530Z,960.36
2022-11-20T00:44:50.525Z,960.38
2022-11-20T00:45:40.489Z,960.37
2022-11-20T00:46:30.505Z,960.37
2022-11-20T00:47:21.079Z,960.31
2022-11-20T00:48:11.477Z,960.33
2022-11-20T00:49:00.468Z,960.30
2022-11-20T00:49:50.477Z,960.35
2022-11-20T00:50:40.438Z,960.34
2022-11-20T00:51:30.430Z,960.31
2022-11-20T00:52:20.438Z,960.28
2022-11-20T00:53:10.648Z,960.32
2022-11-20T00:54:00.406Z,960.31
2022-11-20T00:54:50.426Z,960.31
2022-11-20T00:55:40.389Z,960.31
2022-11-20T00:56:30.388Z,960.34
2022-11-20T00:57:20.400Z,960.32
2022-11-20T00:58:14.311Z,960.28
2022-11-20T00:59:00.366Z,960.29
2022-11-20T00:59:50.337Z,960.30
2022-11-20T01:00:40.353Z,960.30
2022-11-20T01:01:30.515Z,960.27
2022-11-20T01:02:20.312Z,960.31
2022-11-20T01:03:10.306Z,960.28
2022-11-20T01:04:00.290Z,960.32
2022-11-20T01:04:50.501Z,960.28
2022-11-20T01:05:40.286Z,960.27
2022-11-20T01:06:30.264Z,960.34
2022-11-20T01:07:20.325Z,960.35
2022-11-20T01:08:10.250Z,960.30
2022-11-20T01:09:00.233Z,960.33
2022-11-20T01:09:50.235Z,960.35
2022-11-20T01:10:40.285Z,960.41
2022-11-20T01:11:30.229Z,960.38
2022-11-20T01:12:20.204Z,960.32
2022-11-20T01:13:10.193Z,960.33
2022-11-20T01:14:00.196Z,960.36
2022-11-20T01:14:50.167Z,960.42
2022-11-20T01:15:40.163Z,960.46
2022-11-20T01:16:30.194Z,960.41
2022-11-20T01:17:20.175Z,960.38
2022-11-20T01:18:10.158Z,960.36
2022-11-20T01:19:00.128Z,960.38
2022-11-20T01:19:50.131Z,960.40
2022-11-20T01:20:40.101Z,960.41
2022-11-20T01:21:30.103Z,960.47
2022-11-20T01:22:20.101Z,960.43
2022-11-20T01:23:10.072Z,960.44
2022-11-20T01:24:00.296Z,960.40
2022-11-20T01:24:50.070Z,960.41
2022-11-20T01:25:40.041Z,960.49
2022-11-20T01:26:30.039Z,960.45
2022-11-20T01:27:20.040Z,960.43
2022-11-20T01:28:10.078Z,960.42
2022-11-20T01:29:00.016Z,960.44
2022-11-20T01:29:50.001Z,960.45
2022-11-20T01:30:40.021Z,960.46
2022-11-20T01:31:30.007Z,960.42
2022-11-20T01:32:19.972Z,960.47
2022-11-20T01:33:09.982Z,960.49
2022-11-20T01:33:59.970Z,960.47
2022-11-20T01:34:49.939Z,960.44
2022-11-20T01:35:39.947Z,960.52
2022-11-20T01:36:29.939Z,960.48
2022-11-20T01:37:19.914Z,960.49
2022-11-20T01:38:09.927Z,960.51
2022-11-20T01:38:59.900Z,960.48
2022-11-20T01:39:50.130Z,960.51
2022-11-20T01:40:39.887Z,960.54
2022-11-20T01:41:29.880Z,960.50
2022-11-20T01:42:19.867Z,960.50
2022-11-20T01:43:09.850Z,960.49
2022-11-20T01:43:59.858Z,960.48
2022-11-20T01:44:49.850Z,960.47
2022-11-20T01:45:39.849Z,960.48
2022-11-20T01:46:29.827Z,960.49
2022-11-20T01:47:19.819Z,960.48
2022-11-20T01:48:09.796Z,960.58
2022-11-20T01:48:59.798Z,960.51
2022-11-20T01:49:49.797Z,960.50
2022-11-20T01:50:39.779Z,960.48
2022-11-20T01:51:29.807Z,960.53
2022-11-20T01:52:19.760Z,960.51
2022-11-20T01:53:09.740Z,960.51
2022-11-20T01:53:59.732Z,960.54
2022-11-20T01:54:49.717Z,960.53
2022-11-20T01:55:39.719Z,960.57
2022-11-20T01:56:29.706Z,960.55
2022-11-20T01:57:19.719Z,960.58
2022-11-20T01:58:09.702Z,960.55
2022-11-20T01:58:59.670Z,960.57
2022-11-20T01:59:49.676Z,960.56
2022-11-20T02:00:39.665Z,960.57
2022-11-20T02:01:29.707Z,960.51
2022-11-20T02:02:19.625Z,960.53
2022-11-20T02:03:09.665Z,960.53
2022-11-20T02:03:59.647Z,960.49
2022-11-20T02:04:49.626Z,960.53
2022-11-20T02:05:39.613Z,960.52
2022-11-20T02:06:29.619Z,960.52
2022-11-20T02:07:19.680Z,960.55
2022-11-20T02:08:09.584Z,960.59
2022-11-20T02:08:59.635Z,960.59
2022-11-20T02:09:49.555Z,960.55
2022-11-20T02:10:39.566Z,960.56
2022-11-20T02:11:29.544Z,960.53
2022-11-20T02:12:19.544Z,960.56
2022-11-20T02:13:09.523Z,960.53
2022-11-20T02:13:59.535Z,960.52
2022-11-20T02:14:49.725Z,960.55
2022-11-20T02:15:39.494Z,960.54
2022-11-20T02:16:29.945Z,960.49
2022-11-20T02:17:19.473Z,960.46
2022-11-20T02:18:09.462Z,960.44
2022-11-20T02:18:59.458Z,960.46
2022-11-20T02:19:49.460Z,960.42
2022-11-20T02:20:39.551Z,960.41
2022-11-20T02:21:29.477Z,960.41
2022-11-20T02:22:19.468Z,960.44
2022-11-20T02:23:09.420Z,960.42
2022-11-20T02:23:59.392Z,960.36
2022-11-20T02:24:49.381Z,960.42
2022-11-20T02:25:39.393Z,960.39
2022-11-20T02:26:29.371Z,960.45
2022-11-20T02:27:19.364Z,960.46
2022-11-20T02:28:09.391Z,960.52
2022-11-20T02:28:59.330Z,960.52
2022-11-20T02:29:49.330Z,960.50
2022-11-20T02:30:39.336Z,960.54
2022-11-20T02:31:29.332Z,960.51
2022-11-20T02:32:19.311Z,960.47
2022-11-20T02:33:09.299Z,960.45
2022-11-20T02:33:59.321Z,960.44
2022-11-20T02:34:49.271Z,960.52
2022-11-20T02:35:39.279Z,960.45
2022-11-20T02:36:29.277Z,960.48
2022-11-20T02:37:19.473Z,960.45
2022-11-20T02:38:09.251Z,960.46
2022-11-20T02:38:59.252Z,960.47
2022-11-20T02:39:49.309Z,960.48
2022-11-20T02:40:39.200Z,960.47
2022-11-20T02:41:29.199Z,960.42
2022-11-20T02:42:19.189Z,960.47
2022-11-20T02:43:09.179Z,960.48
2022-11-20T02:43:59.178Z,960.47
2022-11-20T02:44:49.159Z,960.45
2022-11-20T02:45:39.191Z,960.44
2022-11-20T02:46:29.143Z,960.41
2022-11-20T02:47:19.160Z,960.44
2022-11-20T02:48:09.140Z,960.38
2022-11-20T02:48:59.126Z,960.39
2022-11-20T02:49:49.106Z,960.40
2022-11-20T02:50:39.115Z,960.41
2022-11-20T02:51:29.126Z,960.40
2022-11-20T02:52:19.076Z,960.39
2022-11-20T02:53:09.084Z,960.41
2022-11-20T02:53:59.058Z,960.38
2022-11-20T02:54:49.046Z,960.41
2022-11-20T02:55:39.055Z,960.38
2022-11-20T02:56:29.036Z,960.40
2022-11-20T02:57:19.066Z,960.35
2022-11-20T02:58:09.027Z,960.37
2022-11-20T02:58:59.016Z,960.39
2022-11-20T02:59:49.020Z,960.40
2022-11-20T03:00:39.004Z,960.40
2022-11-20T03:01:29.015Z,960.39
2022-11-20T03:02:18.983Z,960.36
2022-11-20T03:03:09.213Z,960.35
2022-11-20T03:03:58.944Z,960.34
2022-11-20T03:04:48.936Z,960.38
2022-11-20T03:05:38.934Z,960.36
2022-11-20T03:06:28.914Z,960.38
2022-11-20T03:07:18.935Z,960.30
2022-11-20T03:08:08.918Z,960.32
2022-11-20T03:08:58.914Z,960.41
2022-11-20T03:09:48.891Z,960.31
2022-11-20T03:10:38.894Z,960.32
2022-11-20T03:11:28.884Z,960.35
2022-11-20T03:12:18.853Z,960.33
2022-11-20T03:13:08.840Z,960.29
2022-11-20T03:13:58.840Z,960.28
2022-11-20T03:14:52.766Z,960.23
2022-11-20T03:15:38.822Z,960.29
2022-11-20T03:16:28.831Z,960.35
2022-11-20T03:17:18.794Z,960.33
2022-11-20T03:18:08.789Z,960.33
2022-11-20T03:18:58.792Z,960.34
2022-11-20T03:19:48.771Z,960.30
2022-11-20T03:20:38.774Z,960.29
2022-11-20T03:21:28.744Z,960.34
2022-11-20T03:22:18.773Z,960.36
2022-11-20T03:23:08.741Z,960.37
2022-11-20T03:23:58.727Z,960.37
2022-11-20T03:24:48.721Z,960.34
2022-11-20T03:25:38.710Z,960.32
2022-11-20T03:26:28.710Z,960.32
2022-11-20T03:27:18.694Z,960.31
2022-11-20T03:28:08.911Z,960.33
2022-11-20T03:28:58.662Z,960.26
2022-11-20T03:29:48.649Z,960.26
2022-11-20T03:30:38.666Z,960.27
2022-11-20T03:31:28.639Z,960.30
2022-11-20T03:32:18.649Z,960.29
2022-11-20T03:33:08.618Z,960.35
2022-11-20T03:33:58.669Z,960.35
2022-11-20T03:34:48.610Z,960.36
2022-11-20T03:35:38.588Z,960.35
2022-11-20T03:36:28.588Z,960.35
2022-11-20T03:37:18.568Z,960.39
2022-11-20T03:38:08.558Z,960.33
2022-11-20T03:38:58.551Z,960.39
2022-11-20T03:39:48.778Z,960.43
2022-11-20T03:40:38.538Z,960.34
2022-11-20T03:41:28.535Z,960.36
2022-11-20T03:42:18.536Z,960.39
2022-11-20T03:43:08.558Z,960.40
2022-11-20T03:43:58.496Z,960.37
2022-11-20T03:44:48.493Z,960.39
2022-11-20T03:45:38.527Z,960.37
2022-11-20T03:46:28.473Z,960.31
2022-11-20T03:47:18.478Z,960.38
2022-11-20T03:48:08.466Z,960.34
2022-11-20T03:48:58.438Z,960.36
2022-11-20T03:49:48.427Z,960.34
2022-11-20T03:50:38.441Z,960.37
2022-11-20T03:51:28.458Z,960.35
2022-11-20T03:52:18.428Z,960.36
2022-11-20T03:53:08.413Z,960.41
2022-11-20T03:53:58.398Z,960.39
2022-11-20T03:54:48.385Z,960.38
2022-11-20T03:55:38.393Z,960.40
2022-11-20T03:56:28.357Z,960.44
2022-11-20T03:57:18.387Z,960.43
2022-11-20T03:58:08.344Z,960.40
2022-11-20T03:58:58.343Z,960.38
2022-11-20T03:59:48.325Z,960.32
2022-11-20T04:00:38.341Z,960.38
2022-11-20T04:01:28.583Z,960.35
2022-11-20T04:02:18.350Z,960.33
2022-11-20T04:03:08.293Z,960.37
2022-11-20T04:03:58.294Z,960.37
2022-11-20T04:04:48.271Z,960.36
2022-11-20T04:05:38.280Z,960.30
2022-11-20T04:06:28.253Z,960.33
2022-11-20T04:07:18.310Z,960.35
2022-11-20T04:08:08.225Z,960.36
2022-11-20T04:08:58.236Z,960.36
2022-11-20T04:09:48.208Z,960.37
2022-11-20T04:10:38.200Z,960.31
2022-11-20T04:11:28.218Z,960.32
2022-11-20T04:12:18.190Z,960.33
2022-11-20T04:13:08.211Z,960.27
2022-11-20T04:13:58.184Z,960.37
2022-11-20T04:14:48.160Z,960.41
2022-11-20T04:15:38.604Z,960.39
2022-11-20T04:16:28.131Z,960.39
2022-11-20T04:17:18.382Z,960.37
2022-11-20T04:18:08.129Z,960.39
2022-11-20T04:18:58.382Z,960.40
2022-11-20T04:19:48.090Z,960.39
2022-11-20T04:20:38.092Z,960.40
2022-11-20T04:21:28.091Z,960.37
2022-11-20T04:22:18.072Z,960.40
2022-11-20T04:23:08.061Z,960.41
2022-11-20T04:23:58.066Z,960.42
2022-11-20T04:24:48.073Z,960.41
2022-11-20T04:25:38.042Z,960.45
2022-11-20T04:26:28.023Z,960.43
2022-11-20T04:27:18.031Z,960.40
2022-11-20T04:28:08.010Z,960.43
2022-11-20T04:28:58.035Z,960.44
2022-11-20T04:29:47.998Z,960.45
2022-11-20T04:30:38.010Z,960.50
2022-11-20T04:31:27.972Z,960.41
2022-11-20T04:32:17.979Z,960.49
2022-11-20T04:33:07.952Z,960.49
2022-11-20T04:33:57.968Z,960.48
2022-11-20T04:34:47.936Z,960.47
2022-11-20T04:35:37.920Z,960.51
2022-11-20T04:36:27.958Z,960.48
2022-11-20T04:37:17.907Z,960.52
2022-11-20T04:38:07.896Z,960.53
2022-11-20T04:38:57.907Z,960.52
2022-11-20T04:39:47.890Z,960.55
2022-11-20T04:40:37.879Z,960.57
2022-11-20T04:41:27.858Z,960.58
2022-11-20T04:42:17.907Z,960.59
2022-11-20T04:43:07.837Z,960.58
2022-11-20T04:43:57.827Z,960.57
2022-11-20T04:44:47.816Z,960.58
2022-11-20T04:45:37.842Z,960.58
2022-11-20T04:46:27.816Z,960.60
2022-11-20T04:47:17.796Z,960.58
2022-11-20T04:48:07.806Z,960.63
2022-11-20T04:48:57.776Z,960.62
2022-11-20T04:49:47.827Z,960.65
2022-11-20T04:50:37.755Z,960.58
2022-11-20T04:51:27.764Z,960.52
2022-11-20T04:52:17.754Z,960.56
2022-11-20T04:53:07.717Z,960.53
2022-11-20T04:53:57.752Z,960.51
2022-11-20T04:54:47.712Z,960.49
2022-11-20T04:55:37.722Z,960.51
2022-11-20T04:56:27.687Z,960.56
2022-11-20T04:57:17.731Z,960.55
2022-11-20T04:58:07.695Z,960.55
2022-11-20T04:58:57.674Z,960.53
2022-11-20T04:59:47.684Z,960.59
2022-11-20T05:00:37.656Z,960.53
2022-11-20T05:01:27.678Z,960.54
2022-11-20T05:02:17.641Z,960.58
2022-11-20T05:03:07.629Z,960.52
2022-11-20T05:03:57.613Z,960.56
2022-11-20T05:04:47.597Z,960.53
2022-11-20T05:05:37.603Z,960.55
2022-11-20T05:06:27.586Z,960.54
2022-11-20T05:07:17.610Z,960.53
2022-11-20T05:08:07.567Z,960.49
2022-11-20T05:08:57.583Z,960.47
2022-11-20T05:09:47.564Z,960.51
2022-11-20T05:10:37.555Z,960.49
2022-11-20T05:11:27.528Z,960.49
2022-11-20T05:12:17.539Z,960.47
2022-11-20T05:13:07.499Z,960.48
2022-11-20T05:13:57.493Z,960.48
2022-11-20T05:14:47.563Z,960.51
2022-11-20T05:15:37.491Z,960.49
2022-11-20T05:16:27.461Z,960.52
2022-11-20T05:17:17.450Z,960.50
2022-11-20T05:18:07.451Z,960.53
2022-11-20T05:18:57.439Z,960.45
2022-11-20T05:19:50.625Z,960.49
2022-11-20T05:20:38.666Z,960.49
2022-11-20T05:21:27.432Z,960.47
2022-11-20T05:22:17.409Z,960.52
2022-11-20T05:23:07.396Z,960.49
2022-11-20T05:23:57.619Z,960.47
2022-11-20T05:24:47.392Z,960.51
2022-11-20T05:25:37.391Z,960.54
2022-11-20T05:26:27.369Z,960.53
2022-11-20T05:27:17.339Z,960.50
2022-11-20T05:28:07.329Z,960.50
2022-11-20T05:28:57.337Z,960.48
2022-11-20T05:29:47.356Z,960.51
2022-11-20T05:30:37.320Z,960.52
2022-11-20T05:31:28.434Z,960.51
2022-11-20T05:32:17.303Z,960.52
2022-11-20T05:33:07.283Z,960.50
2022-11-20T05:33:57.301Z,960.53
2022-11-20T05:34:47.275Z,960.52
2022-11-20T05:35:37.307Z,960.53
2022-11-20T05:36:27.250Z,960.52
2022-11-20T05:37:17.236Z,960.48
2022-11-20T05:38:07.228Z,960.48
2022-11-20T05:39:01.479Z,960.51
2022-11-20T05:39:47.220Z,960.44
2022-11-20T05:40:37.210Z,960.50
2022-11-20T05:41:27.213Z,960.54
2022-11-20T05:42:17.180Z,960.47
2022-11-20T05:43:07.156Z,960.49
2022-11-20T05:43:57.175Z,960.54
2022-11-20T05:44:47.169Z,960.55
2022-11-20T05:45:37.146Z,960.52
2022-11-20T05:46:29.053Z,960.54
2022-11-20T05:47:17.125Z,960.51
2022-11-20T05:48:07.156Z,960.49
2022-11-20T05:48:57.117Z,960.51
2022-11-20T05:49:47.106Z,960.51
2022-11-20T05:50:37.079Z,960.48
2022-11-20T05:51:27.068Z,960.48
2022-11-20T05:52:17.085Z,960.45
2022-11-20T05:53:07.093Z,960.50
2022-11-20T05:53:57.066Z,960.53
2022-11-20T05:54:47.046Z,960.50
2022-11-20T05:55:37.034Z,960.51
2022-11-20T05:56:27.025Z,960.49
2022-11-20T05:57:17.035Z,960.54
2022-11-20T05:58:06.993Z,960.52
2022-11-20T05:58:57.025Z,960.48
2022-11-20T05:59:46.993Z,960.48
2022-11-20T06:00:36.973Z,960.49
2022-11-20T06:01:26.966Z,960.48
2022-11-20T06:02:17.013Z,960.51
2022-11-20T06:03:06.954Z,960.47
2022-11-20T06:03:56.939Z,960.45
2022-11-20T06:04:46.945Z,960.44
2022-11-20T06:05:36.925Z,960.48
2022-11-20T06:06:26.921Z,960.48
2022-11-20T06:07:16.952Z,960.49
2022-11-20T06:08:06.903Z,960.45
2022-11-20T06:08:56.881Z,960.50
2022-11-20T06:09:46.885Z,960.46
2022-11-20T06:10:37.080Z,960.44
2022-11-20T06:11:26.853Z,960.49
2022-11-20T06:12:16.883Z,960.42
2022-11-20T06:13:06.827Z,960.47
2022-11-20T06:13:56.831Z,960.49
2022-11-20T06:14:46.820Z,960.52
2022-11-20T06:15:36.802Z,960.51
2022-11-20T06:16:26.821Z,960.56
2022-11-20T06:17:16.801Z,960.52
2022-11-20T06:18:06.787Z,960.55
2022-11-20T06:18:56.796Z,960.58
2022-11-20T06:19:46.762Z,960.54
2022-11-20T06:20:41.922Z,960.59
2022-11-20T06:21:27.789Z,960.52
2022-11-20T06:22:16.728Z,960.52
2022-11-20T06:23:06.729Z,960.51
2022-11-20T06:23:56.699Z,960.50
2022-11-20T06:24:46.698Z,960.50
2022-11-20T06:25:36.686Z,960.52
2022-11-20T06:26:26.716Z,960.50
2022-11-20T06:27:16.670Z,960.53
2022-11-20T06:28:06.685Z,960.52
2022-11-20T06:28:56.657Z,960.49
2022-11-20T06:29:46.661Z,960.47
2022-11-20T06:30:36.655Z,960.47
2022-11-20T06:31:26.635Z,960.47
2022-11-20T06:32:16.645Z,960.47
2022-11-20T06:33:06.655Z,960.48
2022-11-20T06:33:56.606Z,960.47
2022-11-20T06:34:46.586Z,960.45
2022-11-20T06:35:36.591Z,960.49
2022-11-20T06:36:26.558Z,960.49
2022-11-20T06:37:16.560Z,960.51
2022-11-20T06:38:06.577Z,960.49
2022-11-20T06:38:56.526Z,960.50
2022-11-20T06:39:46.537Z,960.45
2022-11-20T06:40:36.544Z,960.50
2022-11-20T06:41:26.527Z,960.51
2022-11-20T06:42:16.497Z,960.49
2022-11-20T06:43:06.521Z,960.48
2022-11-20T06:43:56.508Z,960.50
2022-11-20T06:44:46.483Z,960.52
2022-11-20T06:45:36.487Z,960.52
2022-11-20T06:46:26.473Z,960.50
2022-11-20T06:47:16.442Z,960.52
2022-11-20T06:48:06.436Z,960.54
2022-11-20T06:48:56.424Z,960.53
2022-11-20T06:49:46.477Z,960.53
2022-11-20T06:50:36.405Z,960.60
2022-11-20T06:51:26.421Z,960.60
2022-11-20T06:52:16.383Z,960.54
2022-11-20T06:53:06.392Z,960.52
2022-11-20T06:53:56.374Z,960.56
2022-11-20T06:54:46.405Z,960.56
2022-11-20T06:55:36.394Z,960.60
2022-11-20T06:56:26.333Z,960.63
2022-11-20T06:57:16.337Z,960.62
2022-11-20T06:58:06.322Z,960.57
2022-11-20T06:58:56.322Z,960.58
2022-11-20T06:59:46.321Z,960.61
2022-11-20T07:00:36.348Z,960.63
2022-11-20T07:01:26.352Z,960.59
2022-11-20T07:02:16.284Z,960.63
2022-11-20T07:03:06.282Z,960.67
2022-11-20T07:03:56.254Z,960.69
2022-11-20T07:04:46.261Z,960.61
2022-11-20T07:05:36.232Z,960.64
2022-11-20T07:06:26.233Z,960.69
2022-11-20T07:07:16.303Z,960.67
2022-11-20T07:08:06.242Z,960.70
2022-11-20T07:08:56.197Z,960.69
2022-11-20T07:09:46.221Z,960.67
2022-11-20T07:10:36.201Z,960.72
2022-11-20T07:11:26.187Z,960.69
2022-11-20T07:12:16.159Z,960.71
2022-11-20T07:13:06.417Z,960.72
2022-11-20T07:13:56.139Z,960.77
2022-11-20T07:14:46.130Z,960.70
2022-11-20T07:15:36.143Z,960.74
2022-11-20T07:16:26.130Z,960.70
2022-11-20T07:17:16.128Z,960.69
2022-11-20T07:18:06.099Z,960.70
2022-11-20T07:18:56.109Z,960.74
2022-11-20T07:19:46.099Z,960.73
2022-11-20T07:20:36.092Z,960.73
2022-11-20T07:21:26.099Z,960.71
2022-11-20T07:22:16.071Z,960.67
2022-11-20T07:23:06.059Z,960.68
2022-11-20T07:23:56.032Z,960.70
2022-11-20T07:24:46.348Z,960.65
2022-11-20T07:25:36.018Z,960.68
2022-11-20T07:26:26.016Z,960.71
2022-11-20T07:27:16.025Z,960.75
2022-11-20T07:28:06.009Z,960.76
2022-11-20T07:28:55.989Z,960.71
2022-11-20T07:29:45.983Z,960.74
2022-11-20T07:30:35.979Z,960.73
2022-11-20T07:31:25.956Z,960.73
2022-11-20T07:32:15.936Z,960.72
2022-11-20T07:33:05.947Z,960.79
2022-11-20T07:33:55.967Z,960.82
2022-11-20T07:34:45.933Z,960.79
2022-11-20T07:35:35.900Z,960.78
2022-11-20T07:36:25.897Z,960.81
2022-11-20T07:37:15.904Z,960.77
2022-11-20T07:38:05.890Z,960.79
2022-11-20T07:38:55.878Z,960.74
2022-11-20T07:39:45.886Z,960.71
2022-11-20T07:40:35.861Z,960.75
2022-11-20T07:41:25.855Z,960.76
2022-11-20T07:42:15.840Z,960.71
2022-11-20T07:43:05.815Z,960.71
2022-11-20T07:43:55.822Z,960.71
2022-11-20T07:44:45.803Z,960.74
2022-11-20T07:45:35.836Z,960.66
2022-11-20T07:46:25.796Z,960.66
2022-11-20T07:47:15.766Z,960.66
2022-11-20T07:48:05.777Z,960.68
2022-11-20T07:48:55.755Z,960.68
2022-11-20T07:49:45.769Z,960.65
2022-11-20T07:50:35.736Z,960.72
2022-11-20T07:51:25.762Z,960.67
2022-11-20T07:52:15.713Z,960.70
2022-11-20T07:53:05.721Z,960.71
2022-11-20T07:53:55.724Z,960.75
2022-11-20T07:54:45.703Z,960.72
2022-11-20T07:55:35.684Z,960.76
2022-11-20T07:56:25.674Z,960.64
2022-11-20T07:57:15.703Z,960.71
2022-11-20T07:58:05.671Z,960.71
2022-11-20T07:58:55.643Z,960.74
2022-11-20T07:59:45.650Z,960.73
2022-11-20T08:00:35.671Z,960.76
2022-11-20T08:01:25.650Z,960.79
2022-11-20T08:02:15.611Z,960.77
2022-11-20T08:03:07.330Z,960.84
2022-11-20T08:03:55.581Z,960.78
2022-11-20T08:04:45.591Z,960.78
2022-11-20T08:05:35.581Z,960.80
2022-11-20T08:06:25.571Z,960.83
2022-11-20T08:07:15.581Z,960.81
2022-11-20T08:08:05.532Z,960.81
2022-11-20T08:08:55.591Z,960.80
2022-11-20T08:09:45.540Z,960.81
2022-11-20T08:10:35.521Z,960.73
2022-11-20T08:11:25.500Z,960.76
2022-11-20T08:12:15.492Z,960.79
2022-11-20T08:13:05.487Z,960.81
2022-11-20T08:13:55.482Z,960.83
2022-11-20T08:14:45.510Z,960.83
2022-11-20T08:15:35.454Z,960.84
2022-11-20T08:16:25.467Z,960.86
2022-11-20T08:17:15.431Z,960.86
2022-11-20T08:18:56.428Z,960.91
2022-11-20T08:19:45.412Z,960.91
2022-11-20T08:20:35.433Z,960.95
2022-11-20T08:21:25.419Z,960.93
2022-11-20T08:22:15.378Z,960.94
2022-11-20T08:23:05.370Z,960.95
2022-11-20T08:23:55.376Z,960.96
2022-11-20T08:24:45.367Z,960.93
2022-11-20T08:25:35.347Z,960.90
2022-11-20T08:26:26.067Z,960.98
2022-11-20T08:27:15.325Z,960.98
2022-11-20T08:28:15.688Z,960.98
2022-11-20T08:28:56.306Z,961.00
2022-11-20T08:29:45.323Z,960.98
2022-11-20T08:30:35.298Z,961.00
2022-11-20T08:31:25.289Z,961.01
2022-11-20T08:32:15.316Z,961.02
2022-11-20T08:33:05.277Z,961.02
2022-11-20T08:33:55.237Z,961.03
2022-11-20T08:34:45.236Z,961.01
2022-11-20T08:35:35.236Z,961.05
2022-11-20T08:36:25.236Z,961.01
2022-11-20T08:37:19.637Z,961.02
2022-11-20T08:38:05.925Z,961.02
2022-11-20T08:38:55.187Z,961.06
2022-11-20T08:39:45.206Z,961.02
2022-11-20T08:40:35.185Z,961.07
2022-11-20T08:41:25.188Z,961.06
2022-11-20T08:42:15.265Z,961.12
2022-11-20T08:43:05.153Z,961.11
2022-11-20T08:43:56.463Z,961.07
2022-11-20T08:44:45.125Z,961.05
2022-11-20T08:45:35.646Z,961.11
2022-11-20T08:46:25.179Z,961.10
2022-11-20T08:47:15.087Z,961.15
2022-11-20T08:48:05.097Z,961.13
2022-11-20T08:48:55.111Z,961.16
2022-11-20T08:49:45.144Z,961.08
2022-11-20T08:50:35.066Z,961.13
2022-11-20T08:51:25.072Z,961.16
2022-11-20T08:52:15.061Z,961.15
2022-11-20T08:53:05.048Z,961.16
2022-11-20T08:53:55.033Z,961.11
2022-11-20T08:54:45.036Z,961.09
2022-11-20T08:55:35.233Z,961.13
2022-11-20T08:56:25.003Z,961.12
2022-11-20T08:57:14.989Z,961.10
2022-11-20T08:58:04.994Z,961.14
2022-11-20T08:59:20.243Z,961.14
2022-11-20T09:00:05.006Z,961.14
2022-11-20T09:00:36.010Z,961.12
2022-11-20T09:01:25.092Z,961.17
2022-11-20T09:02:14.924Z,961.20
2022-11-20T09:03:04.942Z,961.13
2022-11-20T09:03:54.922Z,961.12
2022-11-20T09:04:44.901Z,961.19
2022-11-20T09:05:34.933Z,961.26
2022-11-20T09:06:25.117Z,961.23
2022-11-20T09:07:14.899Z,961.18
2022-11-20T09:08:04.862Z,961.20
2022-11-20T09:08:54.876Z,961.23
2022-11-20T09:09:46.332Z,961.20
2022-11-20T09:10:34.851Z,961.16
2022-11-20T09:11:24.840Z,961.21
2022-11-20T09:12:14.840Z,961.27
2022-11-20T09:13:04.812Z,961.23
2022-11-20T09:13:54.804Z,961.27
2022-11-20T09:14:44.788Z,961.28
2022-11-20T09:15:34.802Z,961.30
2022-11-20T09:16:24.777Z,961.27
2022-11-20T09:17:14.759Z,961.31
2022-11-20T09:18:04.792Z,961.33
2022-11-20T09:19:13.422Z,961.38
2022-11-20T09:19:46.147Z,961.35
2022-11-20T09:20:34.725Z,961.36
2022-11-20T09:21:24.918Z,961.33
2022-11-20T09:22:14.716Z,961.35
2022-11-20T09:23:04.710Z,961.40
2022-11-20T09:23:54.719Z,961.44
2022-11-20T09:24:44.682Z,961.38
2022-11-20T09:25:34.671Z,961.41
2022-11-20T09:26:24.671Z,961.40
2022-11-20T09:27:14.658Z,961.48
2022-11-20T09:28:04.648Z,961.49
2022-11-20T09:28:58.096Z,961.47
2022-11-20T09:29:44.897Z,961.47
2022-11-20T09:30:34.668Z,961.51
2022-11-20T09:31:24.607Z,961.52
2022-11-20T09:32:14.607Z,961.50
2022-11-20T09:33:04.620Z,961.49
2022-11-20T09:33:54.577Z,961.55
2022-11-20T09:34:44.564Z,961.54
2022-11-20T09:35:34.596Z,961.45
2022-11-20T09:36:24.571Z,961.51
2022-11-20T09:37:14.549Z,961.43
2022-11-20T09:38:04.544Z,961.44
2022-11-20T09:38:54.536Z,961.49
2022-11-20T09:39:44.529Z,961.47
2022-11-20T09:40:34.520Z,961.49
2022-11-20T09:41:24.726Z,961.51
2022-11-20T09:42:14.476Z,961.52
2022-11-20T09:43:04.485Z,961.45
2022-11-20T09:43:54.477Z,961.52
2022-11-20T09:44:44.447Z,961.51
2022-11-20T09:45:34.444Z,961.53
2022-11-20T09:46:24.441Z,961.53
2022-11-20T09:47:14.483Z,961.52
2022-11-20T09:48:04.406Z,961.50
2022-11-20T09:48:54.404Z,961.52
2022-11-20T09:49:44.401Z,961.55
2022-11-20T09:50:34.436Z,961.56
2022-11-20T09:51:24.384Z,961.51
2022-11-20T09:52:14.381Z,961.50
2022-11-20T09:53:07.300Z,961.53
2022-11-20T09:53:54.348Z,961.55
2022-11-20T09:54:44.362Z,961.52
2022-11-20T09:55:34.350Z,961.53
2022-11-20T09:56:24.331Z,961.57
2022-11-20T09:57:14.312Z,961.61
2022-11-20T09:58:04.322Z,961.63
2022-11-20T09:58:54.565Z,961.64
2022-11-20T09:59:44.281Z,961.61
2022-11-20T10:00:34.323Z,961.63
2022-11-20T10:01:24.406Z,961.61
2022-11-20T10:02:14.252Z,961.60
2022-11-20T10:03:04.363Z,961.58
2022-11-20T10:03:54.249Z,961.63
2022-11-20T10:04:44.282Z,961.62
2022-11-20T10:05:34.228Z,961.62
2022-11-20T10:06:24.202Z,961.58
2022-11-20T10:08:05.229Z,961.63
2022-11-20T10:08:54.180Z,961.62
2022-11-20T10:09:44.182Z,961.68
2022-11-20T10:10:34.267Z,961.71
2022-11-20T10:11:24.161Z,961.65
2022-11-20T10:12:14.194Z,961.63
2022-11-20T10:13:04.151Z,961.63
2022-11-20T10:13:54.142Z,961.64
2022-11-20T10:14:44.123Z,961.62
2022-11-20T10:15:34.130Z,961.64
2022-11-20T10:16:24.330Z,961.62
2022-11-20T10:17:14.081Z,961.66
2022-11-20T10:18:04.088Z,961.65
2022-11-20T10:18:54.074Z,961.61
2022-11-20T10:19:44.052Z,961.62
2022-11-20T10:20:34.057Z,961.73
2022-11-20T10:21:24.029Z,961.70
2022-11-20T10:22:14.079Z,961.69
2022-11-20T10:23:04.022Z,961.62
2022-11-20T10:23:54.017Z,961.55
2022-11-20T10:24:44.029Z,961.57
2022-11-20T10:25:34.008Z,961.57